Time;durP1;ratioP1;P1;durP2;ratioP2;P2;SDS_P1;SDS_P2;PMS_P1;PMS_P2;Temp;Humidity;BMP_temperature;BMP_pressure;BME280_temperature;BME280_humidity;BME280_pressure;Samples;Min_cycle;Max_cycle;Signal;HPM_P1;HPM_P2
2023/07/16 00:00:24;;;;;;;3.22;1.98;;;;;;;22.13;57.09;100846.28;5140757;28;20190;-64
2023/07/16 00:02:53;;;;;;;4.85;1.73;;;;;;;22.13;57.06;100837.25;5138414;28;20066;-63
2023/07/16 00:05:21;;;;;;;4.75;1.85;;;;;;;22.08;57.24;100838.16;5137815;27;20039;-64
2023/07/16 00:07:48;;;;;;;4.45;2.05;;;;;;;22.09;57.23;100845.25;5141526;27;21241;-63
2023/07/16 00:10:16;;;;;;;4.80;1.88;;;;;;;22.07;56.98;100847.47;5143325;27;20082;-63
2023/07/16 00:12:44;;;;;;;3.45;1.50;;;;;;;22.04;57.23;100842.59;5144497;27;20099;-63
2023/07/16 00:15:12;;;;;;;5.72;1.83;;;;;;;22.04;57.13;100839.88;5146134;27;20051;-64
2023/07/16 00:17:40;;;;;;;3.50;1.95;;;;;;;22.02;56.95;100844.81;5146135;27;20047;-64
2023/07/16 00:20:10;;;;;;;3.05;1.63;;;;;;;22.00;57.10;100847.81;5144691;27;20058;-64
2023/07/16 00:22:39;;;;;;;8.18;2.33;;;;;;;21.98;57.03;100844.56;5145536;27;20042;-63
2023/07/16 00:25:08;;;;;;;4.10;1.98;;;;;;;21.96;57.07;100852.28;5147245;27;20047;-63
2023/07/16 00:27:36;;;;;;;5.85;1.98;;;;;;;21.95;57.11;100850.63;5145846;27;20047;-64
2023/07/16 00:30:05;;;;;;;4.05;2.00;;;;;;;21.93;57.14;100849.31;5146777;27;20104;-64
2023/07/16 00:32:32;;;;;;;2.92;1.55;;;;;;;21.92;56.99;100847.69;5146519;27;20039;-63
2023/07/16 00:35:01;;;;;;;5.15;2.10;;;;;;;21.88;57.01;100852.94;5143952;27;20047;-64
2023/07/16 00:37:30;;;;;;;5.15;2.00;;;;;;;21.89;57.18;100853.75;5147346;27;20682;-63
2023/07/16 00:39:58;;;;;;;5.60;1.75;;;;;;;21.88;57.19;100857.59;5145009;27;20054;-64
2023/07/16 00:42:26;;;;;;;5.05;2.10;;;;;;;21.85;57.32;100861.75;5147537;27;20046;-63
2023/07/16 00:44:54;;;;;;;3.85;1.55;;;;;;;21.84;57.24;100851.09;5148464;27;20078;-64
2023/07/16 00:47:22;;;;;;;5.22;1.40;;;;;;;21.83;57.18;100853.03;5145216;27;20107;-64
2023/07/16 00:49:51;;;;;;;4.22;2.00;;;;;;;21.81;57.35;100855.25;5147923;27;20069;-64
2023/07/16 00:52:20;;;;;;;3.03;1.83;;;;;;;21.80;57.40;100852.81;5146047;27;20043;-63
2023/07/16 00:54:49;;;;;;;3.95;1.65;;;;;;;21.78;57.35;100853.09;5146289;27;20069;-64
2023/07/16 00:57:17;;;;;;;4.28;2.05;;;;;;;21.75;57.31;100848.22;5147244;27;20051;-63
2023/07/16 00:59:45;;;;;;;3.72;1.77;;;;;;;21.73;57.55;100850.44;5145483;27;20047;-64
2023/07/16 01:02:13;;;;;;;3.13;2.10;;;;;;;21.71;57.39;100849.91;5146629;27;20047;-64
2023/07/16 01:04:41;;;;;;;4.38;1.70;;;;;;;21.70;57.45;100857.31;5147372;27;20058;-64
2023/07/16 01:07:12;;;;;;;4.55;1.80;;;;;;;21.68;57.59;100851.31;5143642;27;20039;-63
2023/07/16 01:09:43;;;;;;;3.70;1.83;;;;;;;21.66;57.78;100844.53;5143535;27;20070;-63
2023/07/16 01:12:13;;;;;;;3.72;1.92;;;;;;;21.65;57.75;100848.38;5142261;27;20043;-63
2023/07/16 01:14:42;;;;;;;3.50;1.60;;;;;;;21.61;57.69;100850.88;5145487;27;20107;-63
2023/07/16 01:17:09;;;;;;;3.72;1.90;;;;;;;21.61;57.69;100856.34;5143575;27;20066;-63
2023/07/16 01:19:37;;;;;;;4.15;1.70;;;;;;;21.59;57.72;100844.88;5141597;27;20135;-64
2023/07/16 01:22:24;;;;;;;3.90;2.03;;;;;;;21.57;57.50;100852.56;5141171;27;20047;-63
2023/07/16 01:25:07;;;;;;;8.13;2.38;;;;;;;21.56;57.57;100844.66;5145269;27;20158;-63
2023/07/16 01:27:53;;;;;;;2.92;1.60;;;;;;;21.55;57.73;100843.03;5141361;27;20096;-63
2023/07/16 01:30:23;;;;;;;4.15;2.00;;;;;;;21.54;57.64;100841.41;5139291;27;20043;-64
2023/07/16 01:32:51;;;;;;;3.10;1.70;;;;;;;21.52;57.64;100846.38;5143960;27;20135;-64
2023/07/16 01:35:20;;;;;;;2.75;1.80;;;;;;;21.52;57.46;100843.63;5144202;27;20051;-64
2023/07/16 01:37:48;;;;;;;3.58;1.90;;;;;;;21.49;57.59;100841.47;5142971;27;20038;-63
2023/07/16 01:40:16;;;;;;;4.78;2.03;;;;;;;21.48;57.72;100853.53;5144424;27;20050;-64
2023/07/16 01:42:44;;;;;;;4.53;2.15;;;;;;;21.46;57.63;100844.81;5140497;27;20043;-64
2023/07/16 01:45:11;;;;;;;2.92;1.50;;;;;;;21.45;57.75;100849.47;5141631;27;20047;-64
2023/07/16 01:47:55;;;;;;;2.70;1.38;;;;;;;21.42;57.78;100850.06;5142411;27;20064;-63
2023/07/16 01:50:23;;;;;;;4.05;1.92;;;;;;;21.40;57.76;100853.09;5143257;27;20053;-64
2023/07/16 01:52:51;;;;;;;7.43;2.03;;;;;;;21.40;57.60;100860.47;5142884;27;20047;-63
2023/07/16 01:55:19;;;;;;;3.25;1.55;;;;;;;21.38;57.70;100854.47;5142492;27;20047;-63
2023/07/16 01:57:47;;;;;;;3.58;1.65;;;;;;;21.36;57.81;100853.97;5139343;27;20036;-63
2023/07/16 02:00:14;;;;;;;4.18;1.73;;;;;;;21.27;57.76;100842.06;5140764;27;20104;-63
2023/07/16 02:02:44;;;;;;;5.28;1.90;;;;;;;21.34;57.96;100848.78;5142994;27;20039;-63
2023/07/16 02:05:12;;;;;;;3.83;1.63;;;;;;;21.33;57.89;100847.16;5141172;27;20119;-63
2023/07/16 02:07:39;;;;;;;6.93;1.85;;;;;;;21.31;57.72;100846.63;5143925;27;20039;-64
2023/07/16 02:10:08;;;;;;;4.72;1.48;;;;;;;21.30;57.76;100861.41;5136162;27;20039;-64
2023/07/16 02:12:36;;;;;;;2.55;1.40;;;;;;;21.31;57.69;100862.22;5142586;27;20043;-64
2023/07/16 02:15:04;;;;;;;5.18;1.67;;;;;;;21.29;57.71;100856.25;5136807;27;20050;-63
2023/07/16 02:17:32;;;;;;;5.05;2.15;;;;;;;21.28;57.62;100852.69;5140089;27;20047;-64
2023/07/16 02:20:01;;;;;;;5.10;1.63;;;;;;;21.27;57.58;100850.25;5144142;27;20062;-63
2023/07/16 02:22:29;;;;;;;3.97;1.58;;;;;;;21.27;57.68;100858.44;5139778;27;20043;-64
2023/07/16 02:24:57;;;;;;;2.90;1.52;;;;;;;21.25;57.47;100856.00;5137588;27;20043;-64
2023/07/16 02:27:25;;;;;;;5.65;1.55;;;;;;;21.24;57.52;100867.25;5142350;27;20054;-64
2023/07/16 02:29:53;;;;;;;7.05;2.47;;;;;;;21.22;57.64;100863.97;5145643;27;20112;-63
2023/07/16 02:32:21;;;;;;;3.85;2.00;;;;;;;21.22;57.63;100866.72;5143493;27;20063;-64
2023/07/16 02:34:48;;;;;;;3.35;1.60;;;;;;;21.21;57.66;100876.00;5142504;27;20521;-64
2023/07/16 02:37:18;;;;;;;3.97;1.85;;;;;;;21.18;57.50;100871.91;5144010;27;20104;-64
2023/07/16 02:39:47;;;;;;;6.53;1.67;;;;;;;21.18;57.71;100874.66;5142592;27;20125;-64
2023/07/16 02:42:15;;;;;;;4.38;1.80;;;;;;;21.17;57.49;100873.03;5143648;27;20043;-64
2023/07/16 02:44:44;;;;;;;7.63;1.55;;;;;;;21.16;57.67;100873.31;5140879;27;20496;-64
2023/07/16 02:47:12;;;;;;;9.25;2.28;;;;;;;21.14;57.67;100884.53;5136662;27;20073;-63
2023/07/16 02:49:40;;;;;;;5.35;1.95;;;;;;;21.12;57.65;100881.28;5140540;27;20107;-63
2023/07/16 02:52:08;;;;;;;4.18;1.90;;;;;;;21.11;57.64;100876.94;5142129;27;20043;-63
2023/07/16 02:54:38;;;;;;;5.25;2.20;;;;;;;21.10;57.55;100884.31;5143460;27;20040;-63
2023/07/16 02:57:07;;;;;;;5.88;2.17;;;;;;;21.08;57.54;100882.97;5139662;27;20621;-63
2023/07/16 02:59:34;;;;;;;5.10;1.60;;;;;;;21.07;57.49;100886.81;5142898;27;20043;-64
2023/07/16 03:02:02;;;;;;;4.68;1.60;;;;;;;21.04;57.39;100880.00;5140982;27;20077;-63
2023/07/16 03:04:30;;;;;;;3.88;1.50;;;;;;;21.03;57.43;100888.50;5139253;27;20069;-64
2023/07/16 03:06:58;;;;;;;4.88;1.80;;;;;;;21.02;57.23;100893.16;5142905;27;20068;-64
2023/07/16 03:09:26;;;;;;;4.78;2.38;;;;;;;20.99;56.97;100892.91;5142809;27;20055;-63
2023/07/16 03:11:55;;;;;;;3.45;1.70;;;;;;;20.97;57.09;100900.59;5138684;27;20047;-64
2023/07/16 03:14:23;;;;;;;3.95;1.73;;;;;;;20.96;56.98;100898.97;5143625;27;20082;-64
2023/07/16 03:16:50;;;;;;;4.35;2.00;;;;;;;20.94;56.88;100898.44;5142722;27;20047;-63
2023/07/16 03:19:18;;;;;;;6.22;1.70;;;;;;;20.92;56.74;100898.72;5135073;27;20051;-63
2023/07/16 03:21:48;;;;;;;4.40;2.05;;;;;;;20.90;56.78;100914.59;5144528;27;20114;-63
2023/07/16 03:24:16;;;;;;;5.57;2.10;;;;;;;20.88;56.65;100911.34;5136271;27;20047;-64
2023/07/16 03:26:44;;;;;;;4.80;2.35;;;;;;;20.87;56.55;100911.63;5142393;27;20046;-64
2023/07/16 03:29:13;;;;;;;4.35;1.90;;;;;;;20.86;56.51;100912.72;5139633;27;20085;-63
2023/07/16 03:31:41;;;;;;;5.45;2.10;;;;;;;20.84;56.47;100904.00;5142095;27;20048;-63
2023/07/16 03:34:08;;;;;;;4.72;2.30;;;;;;;20.83;56.33;100910.56;5139059;27;20073;-64
2023/07/16 03:36:36;;;;;;;3.95;1.80;;;;;;;20.80;56.13;100907.31;5142567;27;20055;-64
2023/07/16 03:39:04;;;;;;;6.82;2.38;;;;;;;20.78;56.02;100911.47;5142487;27;20326;-63
2023/07/16 03:41:32;;;;;;;8.13;2.30;;;;;;;20.76;56.03;100914.47;5138672;27;20072;-62
2023/07/16 03:44:00;;;;;;;4.97;1.65;;;;;;;20.75;55.91;100914.78;5140069;27;20140;-62
2023/07/16 03:46:29;;;;;;;6.15;2.45;;;;;;;20.72;55.87;100912.63;5140710;27;20068;-63
2023/07/16 03:48:56;;;;;;;6.90;2.28;;;;;;;20.71;55.85;100921.91;5141161;27;20076;-64
2023/07/16 03:51:24;;;;;;;5.45;3.15;;;;;;;20.66;55.73;100917.31;5142356;27;20067;-62
2023/07/16 03:53:52;;;;;;;6.63;2.38;;;;;;;20.67;55.65;100920.84;5136919;27;20077;-63
2023/07/16 03:56:20;;;;;;;7.43;3.03;;;;;;;20.65;55.56;100923.88;5139488;28;20100;-63
2023/07/16 03:58:48;;;;;;;5.43;1.95;;;;;;;20.63;55.65;100934.28;5139449;27;20047;-62
2023/07/16 04:01:15;;;;;;;9.30;2.60;;;;;;;20.59;55.53;100940.59;5139340;27;20075;-63
2023/07/16 04:03:44;;;;;;;6.45;2.72;;;;;;;20.60;55.43;100939.50;5138150;28;20036;-65
2023/07/16 04:06:13;;;;;;;4.32;1.85;;;;;;;20.59;55.17;100944.13;5140589;27;20065;-66
2023/07/16 04:08:41;;;;;;;6.40;2.03;;;;;;;20.58;55.39;100941.69;5140912;27;20050;-63
2023/07/16 04:11:09;;;;;;;6.18;2.65;;;;;;;20.65;55.08;100961.31;5141037;27;20159;-63
2023/07/16 04:13:37;;;;;;;10.13;2.67;;;;;;;20.60;55.04;100961.34;5140873;28;20057;-64
2023/07/16 04:16:05;;;;;;;7.22;2.55;;;;;;;20.57;55.09;100967.38;5144359;27;20099;-63
2023/07/16 04:18:33;;;;;;;7.70;3.05;;;;;;;20.55;55.04;100969.56;5139287;28;20043;-64
2023/07/16 04:21:02;;;;;;;8.13;3.05;;;;;;;20.53;54.97;100978.06;5139336;27;20104;-63
2023/07/16 04:23:30;;;;;;;8.63;2.65;;;;;;;20.51;54.91;100969.34;5142666;27;20085;-64
2023/07/16 04:25:58;;;;;;;10.15;2.72;;;;;;;20.50;54.89;100973.16;5134985;28;20365;-62
2023/07/16 04:28:25;;;;;;;6.97;2.72;;;;;;;20.48;54.77;100980.81;5139788;27;20043;-63
2023/07/16 04:30:53;;;;;;;8.32;2.63;;;;;;;20.47;54.74;100981.91;4783279;28;10000393;-63
2023/07/16 04:33:21;;;;;;;6.55;2.58;;;;;;;20.46;54.78;100975.66;5136885;27;20043;-63
2023/07/16 04:35:49;;;;;;;7.30;2.85;;;;;;;20.46;54.77;100978.38;5138936;28;20058;-64
2023/07/16 04:38:18;;;;;;;6.43;2.30;;;;;;;20.44;54.68;100996.94;5139737;27;20055;-63
2023/07/16 04:40:46;;;;;;;4.22;2.25;;;;;;;20.44;54.74;100993.41;5136799;27;20069;-64
2023/07/16 04:43:14;;;;;;;6.03;3.38;;;;;;;20.42;54.69;100982.78;5140018;28;20046;-64
2023/07/16 04:45:41;;;;;;;5.88;2.58;;;;;;;20.40;54.59;100987.69;5138299;27;20043;-64
2023/07/16 04:48:09;;;;;;;10.68;3.47;;;;;;;20.39;54.54;100997.00;5137034;28;20047;-63
2023/07/16 04:50:37;;;;;;;5.68;2.63;;;;;;;20.39;54.40;100993.44;5138726;28;20048;-63
2023/07/16 04:53:05;;;;;;;6.30;3.10;;;;;;;20.36;54.24;101000.25;5140064;28;20096;-64
2023/07/16 04:55:37;;;;;;;6.32;2.63;;;;;;;20.35;54.24;101003.28;5138986;27;20046;-64
2023/07/16 04:58:06;;;;;;;5.07;3.13;;;;;;;20.33;53.71;101000.00;5141327;27;20128;-64
2023/07/16 05:00:34;;;;;;;6.50;3.08;;;;;;;20.32;54.04;101001.09;5139911;27;20051;-64
2023/07/16 05:03:01;;;;;;;6.03;2.75;;;;;;;20.31;54.00;101000.28;5140130;27;20287;-63
2023/07/16 05:05:30;;;;;;;6.70;2.83;;;;;;;20.31;53.96;101007.66;5139162;27;20039;-64
2023/07/16 05:07:57;;;;;;;7.28;3.15;;;;;;;20.29;53.77;101004.41;5139027;27;20058;-64
2023/07/16 05:10:25;;;;;;;10.95;3.03;;;;;;;20.29;53.76;101007.94;5141214;27;20484;-64
2023/07/16 05:12:54;;;;;;;11.38;3.05;;;;;;;20.30;54.13;101003.31;5141809;27;20073;-63
2023/07/16 05:15:23;;;;;;;6.60;3.72;;;;;;;20.30;53.89;101006.03;5147988;27;20096;-63
2023/07/16 05:17:50;;;;;;;6.25;3.03;;;;;;;20.29;53.94;101013.41;5145020;27;20051;-64
2023/07/16 05:20:18;;;;;;;6.03;2.92;;;;;;;20.29;53.81;101016.13;5142322;27;20561;-64
2023/07/16 05:22:48;;;;;;;4.95;2.75;;;;;;;20.31;53.99;100999.47;4785710;27;10000608;-64
2023/07/16 05:25:16;;;;;;;8.30;3.25;;;;;;;20.32;53.87;101012.03;5147452;27;20075;-64
2023/07/16 05:27:43;;;;;;;6.72;2.80;;;;;;;20.33;53.85;101019.13;5146291;27;20046;-62
2023/07/16 05:30:13;;;;;;;8.85;3.58;;;;;;;20.31;53.73;101015.84;5140396;27;20031;-62
2023/07/16 05:32:41;;;;;;;6.57;3.30;;;;;;;20.33;53.71;101022.66;5141390;27;20039;-63
2023/07/16 05:35:09;;;;;;;8.43;4.00;;;;;;;20.34;53.68;101023.47;5140915;27;20126;-62
2023/07/16 05:37:37;;;;;;;9.88;3.60;;;;;;;20.23;53.62;101003.63;5140493;27;20404;-63
2023/07/16 05:40:08;;;;;;;7.40;3.67;;;;;;;20.36;53.42;101021.28;5139335;27;20043;-62
2023/07/16 05:42:36;;;;;;;6.10;3.28;;;;;;;20.36;53.55;101022.09;5147217;27;20043;-63
2023/07/16 05:45:05;;;;;;;9.32;3.38;;;;;;;20.38;53.59;101021.81;5141700;27;20491;-63
2023/07/16 05:47:34;;;;;;;9.80;3.53;;;;;;;20.38;53.54;101028.13;5137295;27;20043;-62
2023/07/16 05:50:02;;;;;;;10.13;3.83;;;;;;;20.38;53.56;101030.84;5138742;27;20039;-62
2023/07/16 05:52:31;;;;;;;7.90;3.53;;;;;;;20.40;53.70;101039.56;5141527;27;20069;-63
2023/07/16 05:54:59;;;;;;;8.98;3.33;;;;;;;20.40;53.62;101039.56;5140094;27;20051;-62
2023/07/16 05:57:27;;;;;;;9.20;4.28;;;;;;;20.41;53.73;101041.19;5137584;27;20072;-63
2023/07/16 05:59:55;;;;;;;9.77;4.03;;;;;;;20.42;53.68;101042.03;5142637;27;20043;-62
2023/07/16 06:02:23;;;;;;;9.93;4.38;;;;;;;20.43;53.68;101044.47;5142535;27;20454;-65
2023/07/16 06:04:52;;;;;;;9.15;3.67;;;;;;;20.53;53.91;101050.97;5139967;27;20766;-63
2023/07/16 06:07:20;;;;;;;7.63;3.53;;;;;;;20.52;54.01;101050.16;5140033;27;20449;-64
2023/07/16 06:09:48;;;;;;;11.80;3.58;;;;;;;20.52;53.52;101052.06;5137355;27;20082;-63
2023/07/16 06:12:15;;;;;;;9.18;4.05;;;;;;;20.51;53.67;101051.25;5138937;27;20076;-63
2023/07/16 06:14:43;;;;;;;7.10;3.85;;;;;;;20.58;55.30;101054.47;5142913;27;20067;-64
2023/07/16 06:17:11;;;;;;;7.65;4.20;;;;;;;20.70;53.98;101060.41;5139881;27;20047;-66
2023/07/16 06:19:39;;;;;;;9.05;4.57;;;;;;;20.65;53.84;101065.06;5142350;27;20773;-65
2023/07/16 06:22:09;;;;;;;6.72;3.35;;;;;;;20.66;53.61;101073.00;5140005;27;20044;-65
2023/07/16 06:24:36;;;;;;;9.43;3.42;;;;;;;20.94;53.84;101076.03;5141864;27;20461;-65
2023/07/16 06:27:05;;;;;;;10.38;4.05;;;;;;;20.83;53.44;101071.75;5141276;27;20047;-65
2023/07/16 06:29:32;;;;;;;12.80;4.88;;;;;;;20.78;53.79;101073.44;5138897;27;20146;-64
2023/07/16 06:32:00;;;;;;;11.25;4.10;;;;;;;20.75;53.66;101071.28;4784765;27;10000368;-66
2023/07/16 06:34:28;;;;;;;9.05;3.95;;;;;;;20.91;55.06;101079.34;5140985;27;20050;-64
2023/07/16 06:36:56;;;;;;;11.95;3.97;;;;;;;20.93;54.57;101072.50;5139769;27;20043;-64
2023/07/16 06:39:25;;;;;;;11.25;4.13;;;;;;;20.88;54.87;101072.53;5142956;27;20403;-67
2023/07/16 06:41:53;;;;;;;10.98;4.05;;;;;;;20.88;54.06;101083.44;5140715;27;21480;-65
2023/07/16 06:44:22;;;;;;;9.00;4.50;;;;;;;20.94;54.60;101089.69;4781721;27;10000053;-66
2023/07/16 06:46:50;;;;;;;8.52;3.92;;;;;;;20.99;53.85;101085.00;5141436;27;20039;-66
2023/07/16 06:49:18;;;;;;;16.98;5.03;;;;;;;20.93;52.98;101090.81;5140103;27;20463;-63
2023/07/16 06:51:46;;;;;;;11.50;4.90;;;;;;;20.99;54.40;101090.47;5142936;27;20047;-63
2023/07/16 06:54:13;;;;;;;7.45;3.90;;;;;;;20.99;54.51;101089.66;5139394;27;20051;-64
2023/07/16 06:56:43;;;;;;;7.30;3.97;;;;;;;20.99;54.21;101092.38;5144296;27;20269;-64
2023/07/16 06:59:10;;;;;;;11.80;4.63;;;;;;;20.98;54.43;101093.50;5140088;27;20099;-64
2023/07/16 07:01:38;;;;;;;10.20;4.53;;;;;;;20.93;53.26;101097.06;5142952;27;20460;-64
2023/07/16 07:04:06;;;;;;;10.80;4.40;;;;;;;21.10;54.59;101089.28;5136903;27;20095;-61
2023/07/16 07:06:34;;;;;;;13.45;4.90;;;;;;;21.05;54.06;101103.00;5140143;27;20043;-64
2023/07/16 07:09:02;;;;;;;8.05;3.78;;;;;;;21.09;54.89;101097.78;5141250;27;20484;-64
2023/07/16 07:11:30;;;;;;;8.38;4.57;;;;;;;21.07;53.90;101099.97;5137118;27;20047;-64
2023/07/16 07:13:59;;;;;;;8.35;4.70;;;;;;;21.09;53.88;101108.72;5140478;27;20047;-64
2023/07/16 07:16:27;;;;;;;12.20;4.55;;;;;;;21.07;53.83;101100.78;5139480;27;20067;-64
2023/07/16 07:18:54;;;;;;;11.68;5.10;;;;;;;21.06;53.95;101112.00;5139460;27;20047;-64
2023/07/16 07:21:22;;;;;;;12.30;5.43;;;;;;;21.04;53.53;101109.56;5138691;27;20042;-64
2023/07/16 07:23:50;;;;;;;10.13;4.47;;;;;;;21.01;53.19;101099.19;5139176;27;20061;-63
2023/07/16 07:26:18;;;;;;;9.10;4.20;;;;;;;21.01;53.11;101112.88;5144043;27;20495;-63
2023/07/16 07:28:46;;;;;;;9.25;4.55;;;;;;;20.99;53.21;101101.41;5138286;27;20047;-63
2023/07/16 07:31:15;;;;;;;8.90;4.90;;;;;;;20.98;53.16;101113.44;5136023;27;20476;-63
2023/07/16 07:33:43;;;;;;;14.00;5.65;;;;;;;20.99;53.23;101115.06;5132329;27;20110;-63
2023/07/16 07:36:10;;;;;;;9.38;4.53;;;;;;;21.09;53.82;101130.56;5135252;27;20047;-63
2023/07/16 07:38:38;;;;;;;8.55;4.47;;;;;;;21.24;52.77;101124.19;5131730;27;20051;-63
2023/07/16 07:41:07;;;;;;;12.10;5.05;;;;;;;21.13;52.65;101132.44;5134858;27;20100;-64
2023/07/16 07:43:34;;;;;;;17.50;5.13;;;;;;;21.08;52.58;101126.22;5138681;27;20514;-63
2023/07/16 07:46:02;;;;;;;9.40;4.20;;;;;;;21.07;52.72;101130.84;5136062;27;20055;-62
2023/07/16 07:48:31;;;;;;;12.75;4.80;;;;;;;21.06;53.16;101131.16;5137704;27;20103;-63
2023/07/16 07:50:59;;;;;;;10.07;5.30;;;;;;;21.03;52.61;101139.91;5139799;27;20043;-62
2023/07/16 07:53:27;;;;;;;8.95;4.60;;;;;;;21.03;52.90;101137.19;5137471;27;20047;-64
2023/07/16 07:55:55;;;;;;;9.20;4.78;;;;;;;21.00;52.74;101137.75;5137655;27;20063;-65
2023/07/16 07:58:23;;;;;;;11.23;4.65;;;;;;;20.99;52.74;101127.91;5142729;27;20050;-66
2023/07/16 08:00:51;;;;;;;8.60;4.90;;;;;;;20.97;52.64;101125.47;5138147;27;20042;-66
2023/07/16 08:03:19;;;;;;;8.45;4.95;;;;;;;20.96;52.56;101129.31;5136633;27;20043;-64
2023/07/16 08:05:50;;;;;;;8.52;4.63;;;;;;;20.96;52.64;101133.94;5136221;27;20461;-64
2023/07/16 08:08:18;;;;;;;9.90;5.97;;;;;;;20.97;52.78;101135.59;5135503;28;20092;-64
2023/07/16 08:10:46;;;;;;;9.18;5.00;;;;;;;20.97;52.77;101130.94;5142643;28;20051;-63
2023/07/16 08:13:14;;;;;;;11.10;4.90;;;;;;;20.97;52.52;101130.13;5138123;27;20100;-63
2023/07/16 08:15:42;;;;;;;6.53;4.10;;;;;;;20.97;52.64;101133.66;5144869;28;20055;-63
2023/07/16 08:18:10;;;;;;;8.27;4.68;;;;;;;20.98;52.67;101137.22;5140307;28;20044;-63
2023/07/16 08:20:38;;;;;;;9.48;4.30;;;;;;;20.97;52.59;101125.47;5136268;27;20043;-63
2023/07/16 08:23:07;;;;;;;12.55;4.68;;;;;;;20.98;52.74;101135.28;5159355;27;20062;-63
2023/07/16 08:25:35;;;;;;;10.10;4.47;;;;;;;21.00;52.80;101135.00;5140169;28;20058;-63
2023/07/16 08:28:03;;;;;;;11.48;4.90;;;;;;;21.01;52.63;101134.72;5139369;27;20070;-64
2023/07/16 08:30:33;;;;;;;9.20;4.60;;;;;;;21.04;53.00;101133.34;5157154;27;20127;-63
2023/07/16 08:33:01;;;;;;;6.90;4.57;;;;;;;21.04;53.19;101134.16;5148460;27;20081;-63
2023/07/16 08:35:29;;;;;;;9.23;4.43;;;;;;;21.04;52.49;101131.44;5152867;27;20114;-63
2023/07/16 08:37:56;;;;;;;11.93;4.72;;;;;;;21.03;52.47;101140.72;5157073;27;20441;-63
2023/07/16 08:40:27;;;;;;;12.13;4.47;;;;;;;21.05;52.43;101141.25;5161466;27;20043;-63
2023/07/16 08:42:57;;;;;;;7.03;4.20;;;;;;;21.08;53.00;101150.81;5160700;27;20057;-64
2023/07/16 08:45:29;;;;;;;9.48;4.32;;;;;;;21.09;52.64;101146.97;5154397;27;20118;-63
2023/07/16 08:47:57;;;;;;;9.35;5.00;;;;;;;21.11;52.52;101144.78;5159656;27;20048;-63
2023/07/16 08:50:26;;;;;;;8.18;4.70;;;;;;;21.12;52.55;101149.94;5164049;27;20070;-63
2023/07/16 08:52:57;;;;;;;9.13;4.70;;;;;;;21.13;52.50;101148.03;5142487;27;20056;-63
2023/07/16 08:55:27;;;;;;;9.23;4.10;;;;;;;21.14;52.83;101152.41;5148845;27;20119;-63
2023/07/16 08:57:54;;;;;;;9.25;4.10;;;;;;;21.16;53.01;101152.94;5147847;27;20039;-63
2023/07/16 09:00:25;;;;;;;10.18;4.43;;;;;;;21.18;52.60;101155.38;5148806;27;20047;-63
2023/07/16 09:02:53;;;;;;;8.50;4.57;;;;;;;21.17;52.59;101154.56;5135191;27;20043;-63
2023/07/16 09:05:22;;;;;;;8.13;4.05;;;;;;;21.20;53.33;101159.47;5152206;27;20053;-63
2023/07/16 09:08:06;;;;;;;7.93;4.35;;;;;;;21.22;52.79;101153.75;5148052;27;20138;-63
2023/07/16 09:10:35;;;;;;;9.45;4.20;;;;;;;21.21;52.97;101152.91;5138081;27;20047;-64
2023/07/16 09:13:03;;;;;;;10.85;4.22;;;;;;;21.20;52.49;101156.72;5139614;27;20047;-63
2023/07/16 09:15:33;;;;;;;8.35;4.45;;;;;;;21.25;52.69;101161.38;5143478;27;20055;-63
2023/07/16 09:18:01;;;;;;;6.90;3.70;;;;;;;21.26;52.61;101160.28;5147910;27;20075;-63
2023/07/16 09:20:31;;;;;;;8.45;4.22;;;;;;;21.30;53.35;101166.78;5145473;27;20053;-63
2023/07/16 09:23:00;;;;;;;8.52;3.75;;;;;;;21.31;52.69;101165.69;5147929;27;20047;-63
2023/07/16 09:25:28;;;;;;;7.70;3.85;;;;;;;21.29;52.61;101160.50;5142320;27;20051;-63
2023/07/16 09:27:59;;;;;;;11.90;3.70;;;;;;;21.33;52.55;101177.97;5147701;27;20043;-63
2023/07/16 09:30:32;;;;;;;9.35;4.38;;;;;;;21.36;52.81;101171.13;5147712;27;20158;-63
2023/07/16 09:33:10;;;;;;;7.30;4.28;;;;;;;21.38;52.62;101174.38;5147379;27;20100;-63
2023/07/16 09:35:38;;;;;;;11.45;3.88;;;;;;;21.38;52.54;101163.44;5144194;27;20047;-63
2023/07/16 09:38:08;;;;;;;5.85;3.58;;;;;;;21.41;52.64;101182.03;5147516;27;20055;-63
2023/07/16 09:40:36;;;;;;;7.78;3.83;;;;;;;21.40;52.31;101173.00;5147246;27;20043;-63
2023/07/16 09:43:07;;;;;;;13.25;4.55;;;;;;;21.41;52.50;101174.63;5144629;27;20066;-64
2023/07/16 09:45:35;;;;;;;9.70;4.03;;;;;;;21.43;52.24;101190.75;5146871;27;20047;-64
2023/07/16 09:48:04;;;;;;;6.72;3.83;;;;;;;21.43;52.32;101180.63;5145591;27;20046;-64
2023/07/16 09:50:34;;;;;;;7.78;3.97;;;;;;;21.47;52.76;101191.81;5147575;27;20051;-64
2023/07/16 09:53:07;;;;;;;7.47;4.45;;;;;;;21.43;52.17;101188.84;5145672;27;20079;-64
2023/07/16 09:55:36;;;;;;;6.57;3.58;;;;;;;21.43;52.50;101180.63;5145036;27;20072;-63
2023/07/16 09:58:10;;;;;;;7.03;3.72;;;;;;;21.44;52.44;101195.94;5137923;27;20043;-63
2023/07/16 10:00:40;;;;;;;7.43;4.18;;;;;;;21.44;51.96;101197.84;5145484;27;20062;-63
2023/07/16 10:03:08;;;;;;;8.23;3.90;;;;;;;21.42;51.93;101200.06;5146567;27;20051;-63
2023/07/16 10:05:38;;;;;;;5.75;3.35;;;;;;;21.41;51.73;101207.44;5144609;27;20070;-63
2023/07/16 10:08:15;;;;;;;8.05;3.60;;;;;;;21.41;52.13;101203.91;5146847;27;20059;-63
2023/07/16 10:10:45;;;;;;;8.80;3.38;;;;;;;21.40;51.93;101208.53;5145405;27;20418;-63
2023/07/16 10:13:15;;;;;;;9.15;3.35;;;;;;;21.41;51.91;101209.38;5142694;27;20042;-63
2023/07/16 10:15:53;;;;;;;8.43;2.97;;;;;;;21.40;51.62;101214.03;5141970;27;20055;-63
2023/07/16 10:18:30;;;;;;;8.50;4.82;;;;;;;21.41;51.92;101214.84;5145017;27;20047;-63
2023/07/16 10:21:05;;;;;;;6.07;3.28;;;;;;;21.39;52.12;101220.59;5146267;27;20102;-64
2023/07/16 10:23:42;;;;;;;7.90;3.70;;;;;;;21.40;51.83;101232.34;5146701;27;20151;-64
2023/07/16 10:26:13;;;;;;;8.98;3.88;;;;;;;21.40;51.98;101227.69;5141719;27;20039;-64
2023/07/16 10:28:48;;;;;;;4.53;3.35;;;;;;;21.40;52.22;101235.91;5146193;27;20107;-63
2023/07/16 10:31:21;;;;;;;5.32;3.22;;;;;;;21.40;51.99;101240.53;5146649;27;20051;-63
2023/07/16 10:33:59;;;;;;;7.03;3.72;;;;;;;21.38;51.88;101238.09;5138145;27;20070;-64
2023/07/16 10:36:27;;;;;;;6.47;3.63;;;;;;;21.38;51.82;101240.84;5146449;27;20047;-64
2023/07/16 10:38:54;;;;;;;6.28;3.55;;;;;;;21.38;52.10;101237.28;5146341;27;20047;-64
2023/07/16 10:41:23;;;;;;;7.20;3.40;;;;;;;21.39;51.82;101236.19;5143424;27;20046;-64
2023/07/16 10:43:52;;;;;;;7.22;3.65;;;;;;;21.39;51.83;101241.66;5146212;27;20047;-64
2023/07/16 10:46:22;;;;;;;6.88;3.78;;;;;;;21.38;51.69;101243.56;5142482;27;20051;-63
2023/07/16 10:48:50;;;;;;;7.70;4.18;;;;;;;21.38;51.83;101243.56;5146265;27;20384;-64
2023/07/16 10:51:18;;;;;;;4.60;3.00;;;;;;;21.39;51.50;101244.38;5140711;27;20043;-63
2023/07/16 10:53:46;;;;;;;7.28;3.10;;;;;;;21.41;52.25;101248.47;5142549;27;20054;-64
2023/07/16 10:56:13;;;;;;;6.82;3.58;;;;;;;21.39;51.38;101258.88;5146191;27;20047;-63
2023/07/16 10:58:42;;;;;;;7.13;3.67;;;;;;;21.40;51.64;101257.78;5140573;27;20519;-63
2023/07/16 11:01:11;;;;;;;9.32;4.55;;;;;;;21.41;51.72;101261.31;5144461;27;20039;-64
2023/07/16 11:03:39;;;;;;;8.88;4.20;;;;;;;21.39;51.32;101260.78;5139166;27;20535;-63
2023/07/16 11:06:07;;;;;;;8.32;3.72;;;;;;;21.41;51.55;101266.78;5141688;27;20039;-64
2023/07/16 11:08:35;;;;;;;7.22;4.07;;;;;;;21.39;51.44;101264.34;5145648;27;20050;-63
2023/07/16 11:11:03;;;;;;;9.25;3.08;;;;;;;21.39;51.52;101269.81;5138047;27;20051;-63
2023/07/16 11:13:33;;;;;;;7.20;3.83;;;;;;;21.38;51.41;101259.16;5139744;27;20059;-63
2023/07/16 11:16:08;;;;;;;8.57;4.00;;;;;;;21.38;51.67;101264.63;5140128;27;20197;-63
2023/07/16 11:18:37;;;;;;;7.07;3.60;;;;;;;21.38;51.40;101261.88;5145222;27;20539;-64
2023/07/16 11:21:05;;;;;;;9.25;4.03;;;;;;;21.35;51.32;101267.94;5140901;27;20054;-63
2023/07/16 11:23:34;;;;;;;7.72;3.83;;;;;;;21.33;51.45;101273.69;5143822;27;20051;-64
2023/07/16 11:26:03;;;;;;;10.30;3.45;;;;;;;21.33;51.24;101275.59;5145573;27;20082;-64
2023/07/16 11:28:37;;;;;;;7.95;3.63;;;;;;;21.31;51.20;101278.63;5135740;27;20384;-63
2023/07/16 11:31:11;;;;;;;9.68;3.65;;;;;;;21.31;51.40;101273.16;5141651;27;20088;-64